Emden — 3ERP5 — position and weather

sailwx.info

Track history (hours):
 
Tides and Currents Weather Stations Pressure Air Temp Water Temp Dewpoint Dewpoint Depression Visibility Wind Speed Wind Dir Waves Ship Positions

Emden

Last reported at 2015-May-21 15:33 UTC. Time now 2015-May-24 17:27 UTC.
Position N 40°40' W 009°50'.

Length 177 m; draft 7.1 m.

Type: Ship. MMSI: 355051000.

Date/timePositionNaut miles runAvg speedWind from/ knotsBaromVisibWave heightAir tempDewpointWater temp
2015-May-21 15:33N 40°40' W 009°50'1211.9
2015-May-21 14:30N 40°27' W 009°51'1111.8
2015-May-21 13:33N 40°16' W 009°51'1212.2
2015-May-21 12:34N 40°04' W 009°51'2411.7
2015-May-21 10:32N 39°40' W 009°51'1111.3
2015-May-21 09:33N 39°29' W 009°51'1110.9
2015-May-21 08:33N 39°18' W 009°50'1110.6
2015-May-21 07:33N 39°08' W 009°49'1110.9
2015-May-21 06:33N 38°57' W 009°50'1111.0
2015-May-21 05:33N 38°46' W 009°51'1110.6
2015-May-21 04:33N 38°36' W 009°47'1111.4
2015-May-21 03:33N 38°28' W 009°36'1212.0
2015-May-21 02:33N 38°22' W 009°23'1413.5
2015-May-21 01:33N 38°21' W 009°05'1111.2
2015-May-21 00:33N 38°29' W 008°56'3 3.2
2015-May-20 23:29N 38°31' W 008°52'0 0.0
2015-May-20 22:11N 38°31' W 008°52'0 0.0
2015-May-20 20:17N 38°31' W 008°52'0 0.0
2015-May-20 19:26N 38°31' W 008°52'0 0.0
2015-May-20 18:32N 38°31' W 008°52'0 0.0
2015-May-20 17:26N 38°31' W 008°52'0 0.0
2015-May-20 16:32N 38°31' W 008°52'0 0.0
2015-May-20 15:29N 38°31' W 008°52'0 0.0
2015-May-20 14:32N 38°31' W 008°52'0 0.0
2015-May-20 13:29N 38°31' W 008°52'0 0.0
2015-May-20 12:33N 38°31' W 008°52'4 4.0
2015-May-20 11:33N 38°29' W 008°57'7 6.6
2015-May-20 10:34N 38°24' W 009°02'1211.6
2015-May-20 09:33N 38°21' W 009°17'1313.4
2015-May-20 08:33N 38°24' W 009°33'1312.9
2015-May-20 07:33N 38°29' W 009°49'1212.3
2015-May-20 06:33N 38°34' W 010°03'1313.4
2015-May-20 05:33N 38°47' W 010°06'1414.1
2015-May-20 04:33N 39°01' W 010°06'1413.8
2015-May-20 03:33N 39°15' W 010°06'32010.9
2015-May-18 22:11N 43°48' W 006°23'913.7
2015-May-18 21:33N 43°47' W 006°11'1413.6
2015-May-18 20:32N 43°45' W 005°52'1313.4
2015-May-18 19:33N 43°44' W 005°34'1313.7
2015-May-18 18:34N 43°42' W 005°16'1313.3
2015-May-18 17:33N 43°40' W 004°57'1313.2
2015-May-18 16:33N 43°38' W 004°39'  
2015-May-16 04:07N 49°53' W 003°19'711.7
2015-May-16 03:33N 49°56' W 003°10'1211.8
2015-May-16 02:33N 50°01' W 002°53'4815.2
2015-May-15 23:23N 50°15' W 001°41'1416.1
2015-May-15 22:33N 50°18' W 001°21'1514.8
2015-May-15 21:33N 50°22' W 000°59'1413.0
2015-May-15 20:31N 50°26' W 000°38'1411.9
2015-May-15 19:23N 50°29' W 000°18'1011.5
2015-May-15 18:31N 50°32' W 000°03'4143.1
2015-May-15 17:33N 50°49' E 000°57'1817.9
2015-May-15 16:33N 50°38' E 000°34'1514.8
2015-May-15 15:33N 50°47' E 000°53'1716.8
2015-May-15 14:34N 50°57' E 001°14'1716.8
2015-May-15 13:34N 51°08' E 001°34'1313.1
2015-May-15 12:33N 51°21' E 001°36'1111.1
2015-May-15 11:33N 51°28' E 001°23'1514.7
2015-May-15 10:33N 51°29' E 000°59'10 9.5
2015-May-15 09:34N 51°26' E 000°44'0 0.0
2015-May-15 08:33N 51°26' E 000°44'0 0.0
2015-May-15 07:33N 51°26' E 000°44'0 0.0
2015-May-15 06:33N 51°26' E 000°44'0 0.0
2015-May-15 05:33N 51°26' E 000°44'0 0.0
2015-May-15 04:33N 51°26' E 000°44'0 0.0
2015-May-15 03:33N 51°26' E 000°44'0 0.0
2015-May-15 02:33N 51°26' E 000°44'0 0.0
2015-May-15 01:33N 51°26' E 000°44'0 0.0
2015-May-15 00:33N 51°26' E 000°44'0 0.0
2015-May-14 23:33N 51°26' E 000°44'0 0.0
2015-May-14 22:33N 51°26' E 000°44'0 0.0
2015-May-14 21:33N 51°26' E 000°44'0 0.0
2015-May-14 20:33N 51°26' E 000°44'0 0.0
2015-May-14 19:33N 51°26' E 000°44'0 0.2
2015-May-14 18:33N 51°26' E 000°44'1010.0
2015-May-14 17:33N 51°29' E 000°59'1414.0
2015-May-14 16:33N 51°28' E 001°22'6 6.3
2015-May-14 15:33N 51°26' E 001°31'7 7.5
2015-May-14 14:34N 51°30' E 001°41'1211.9
2015-May-14 13:33N 51°36' E 001°57'1010.1
2015-May-14 12:33N 51°46' E 002°04'3 1.4
2015-May-14 10:31N 51°43' E 002°06'2 1.8
2015-May-14 09:33N 51°41' E 002°07'1211.9
2015-May-14 08:33N 51°47' E 002°24'7814.7
2015-May-14 03:13N 52°48' E 003°44'914.1
2015-May-14 02:33N 52°55' E 003°55'1413.4
2015-May-14 01:29N 53°05' E 004°12'2512.4
2015-May-13 23:28N 53°26' E 004°35'1213.3
2015-May-13 22:33N 53°31' E 004°53'1514.6
2015-May-13 21:33N 53°36' E 005°16'1514.5
2015-May-13 20:33N 53°41' E 005°39'1414.0
2015-May-13 19:33N 53°44' E 006°02'1212.0
2015-May-13 18:33N 53°38' E 006°20'1111.5
2015-May-13 17:33N 53°35' E 006°38'1313.0
2015-May-13 16:34N 53°26' E 006°55'9 9.4
2015-May-13 15:33N 53°20' E 007°06'2 2.2
2015-May-13 14:32N 53°20' E 007°10'0 0.0
2015-May-13 13:32N 53°20' E 007°10'0 0.0
2015-May-13 12:32N 53°20' E 007°10'0 0.0
2015-May-13 11:32N 53°20' E 007°10'0 0.0
2015-May-13 10:32N 53°20' E 007°10'0 0.0
2015-May-13 09:32N 53°20' E 007°10'0 0.0
2015-May-13 08:29N 53°20' E 007°10'0 0.0
2015-May-13 07:32N 53°20' E 007°10'0 0.0
2015-May-13 06:32N 53°20' E 007°10'0 0.0
2015-May-13 05:32N 53°20' E 007°10'0 0.0
2015-May-13 04:29N 53°20' E 007°10'0 0.0
2015-May-13 03:32N 53°20' E 007°10'0 0.0
2015-May-13 02:32N 53°20' E 007°10'0 0.0
2015-May-13 01:32N 53°20' E 007°10'0 0.0
2015-May-13 00:32N 53°20' E 007°10'0 0.0
2015-May-12 23:32N 53°20' E 007°10'0 0.0
2015-May-12 22:29N 53°20' E 007°10'0 0.0
2015-May-12 21:32N 53°20' E 007°10'0 0.0
2015-May-12 20:32N 53°20' E 007°10'0 0.0
2015-May-12 19:32N 53°20' E 007°10'0 0.0
2015-May-12 18:29N 53°20' E 007°10'0 0.0
2015-May-12 17:32N 53°20' E 007°10'0 0.0
2015-May-12 16:32N 53°20' E 007°10'0 0.0
2015-May-12 15:32N 53°20' E 007°10'0 0.0
2015-May-12 14:32N 53°20' E 007°10'0 0.0
2015-May-12 13:32N 53°20' E 007°10'0 0.0
2015-May-12 12:29N 53°20' E 007°10'0 0.0
2015-May-12 11:32N 53°20' E 007°10'0 0.0
2015-May-12 10:32N 53°20' E 007°10'0 0.0
2015-May-12 09:32N 53°20' E 007°10'2 2.0
2015-May-12 08:33N 53°20' E 007°07'9 9.1
2015-May-12 07:33N 53°26' E 006°55'1212.1
2015-May-12 06:34N 53°34' E 006°40'1111.5
2015-May-12 05:33N 53°38' E 006°22'9 9.5
2015-May-12 04:33N 53°38' E 006°06'1414.3
2015-May-12 03:33N 53°36' E 005°42'1514.9
2015-May-12 02:33N 53°31' E 005°18'1615.5
2015-May-12 01:33N 53°26' E 004°54'1514.6
2015-May-12 00:33N 53°16' E 004°36'1615.6
2015-May-11 23:33N 53°02' E 004°23'1615.7
2015-May-11 22:33N 52°48' E 004°13'1616.0
2015-May-11 21:33N 52°36' E 003°55'1615.8
2015-May-11 20:33N 52°25' E 003°36'1616.0
2015-May-11 19:33N 52°15' E 003°16'1616.3
2015-May-11 18:33N 52°02' E 002°59'1717.4
2015-May-11 17:33N 51°49' E 002°41'1716.9
2015-May-11 16:33N 51°36' E 002°23'1616.1
2015-May-11 15:33N 51°22' E 002°10'  
Track history (hours):
 
Tides and Currents Weather Stations Pressure Air Temp Water Temp Dewpoint Dewpoint Depression Visibility Wind Speed Wind Dir Waves Ship Positions

Emden

Last reported at 2015-May-21 15:33 UTC. Time now 2015-May-24 17:27 UTC.
Position N 40°40' W 009°50'.

Length 177 m; draft 7.1 m.

Type: Ship. MMSI: 355051000.

Date/timePositionNaut miles runAvg speedWind from/ knotsBaromVisibWave heightAir tempDewpointWater temp
2015-May-21 15:33N 40°40' W 009°50'1211.9
2015-May-21 14:30N 40°27' W 009°51'1111.8
2015-May-21 13:33N 40°16' W 009°51'1212.2
2015-May-21 12:34N 40°04' W 009°51'2411.7
2015-May-21 10:32N 39°40' W 009°51'1111.3
2015-May-21 09:33N 39°29' W 009°51'1110.9
2015-May-21 08:33N 39°18' W 009°50'1110.6
2015-May-21 07:33N 39°08' W 009°49'1110.9
2015-May-21 06:33N 38°57' W 009°50'1111.0
2015-May-21 05:33N 38°46' W 009°51'1110.6
2015-May-21 04:33N 38°36' W 009°47'1111.4
2015-May-21 03:33N 38°28' W 009°36'1212.0
2015-May-21 02:33N 38°22' W 009°23'1413.5
2015-May-21 01:33N 38°21' W 009°05'1111.2
2015-May-21 00:33N 38°29' W 008°56'3 3.2
2015-May-20 23:29N 38°31' W 008°52'0 0.0
2015-May-20 22:11N 38°31' W 008°52'0 0.0
2015-May-20 20:17N 38°31' W 008°52'0 0.0
2015-May-20 19:26N 38°31' W 008°52'0 0.0
2015-May-20 18:32N 38°31' W 008°52'0 0.0
2015-May-20 17:26N 38°31' W 008°52'0 0.0
2015-May-20 16:32N 38°31' W 008°52'0 0.0
2015-May-20 15:29N 38°31' W 008°52'0 0.0
2015-May-20 14:32N 38°31' W 008°52'0 0.0
2015-May-20 13:29N 38°31' W 008°52'0 0.0
2015-May-20 12:33N 38°31' W 008°52'4 4.0
2015-May-20 11:33N 38°29' W 008°57'7 6.6
2015-May-20 10:34N 38°24' W 009°02'1211.6
2015-May-20 09:33N 38°21' W 009°17'1313.4
2015-May-20 08:33N 38°24' W 009°33'1312.9
2015-May-20 07:33N 38°29' W 009°49'1212.3
2015-May-20 06:33N 38°34' W 010°03'1313.4
2015-May-20 05:33N 38°47' W 010°06'1414.1
2015-May-20 04:33N 39°01' W 010°06'1413.8
2015-May-20 03:33N 39°15' W 010°06'32010.9
2015-May-18 22:11N 43°48' W 006°23'913.7
2015-May-18 21:33N 43°47' W 006°11'1413.6
2015-May-18 20:32N 43°45' W 005°52'1313.4
2015-May-18 19:33N 43°44' W 005°34'1313.7
2015-May-18 18:34N 43°42' W 005°16'1313.3
2015-May-18 17:33N 43°40' W 004°57'1313.2
2015-May-18 16:33N 43°38' W 004°39'  
2015-May-16 04:07N 49°53' W 003°19'711.7
2015-May-16 03:33N 49°56' W 003°10'1211.8
2015-May-16 02:33N 50°01' W 002°53'4815.2
2015-May-15 23:23N 50°15' W 001°41'1416.1
2015-May-15 22:33N 50°18' W 001°21'1514.8
2015-May-15 21:33N 50°22' W 000°59'1413.0
2015-May-15 20:31N 50°26' W 000°38'1411.9
2015-May-15 19:23N 50°29' W 000°18'1011.5
2015-May-15 18:31N 50°32' W 000°03'4143.1
2015-May-15 17:33N 50°49' E 000°57'1817.9
2015-May-15 16:33N 50°38' E 000°34'1514.8
2015-May-15 15:33N 50°47' E 000°53'1716.8
2015-May-15 14:34N 50°57' E 001°14'1716.8
2015-May-15 13:34N 51°08' E 001°34'1313.1
2015-May-15 12:33N 51°21' E 001°36'1111.1
2015-May-15 11:33N 51°28' E 001°23'1514.7
2015-May-15 10:33N 51°29' E 000°59'10 9.5
2015-May-15 09:34N 51°26' E 000°44'0 0.0
2015-May-15 08:33N 51°26' E 000°44'0 0.0
2015-May-15 07:33N 51°26' E 000°44'0 0.0
2015-May-15 06:33N 51°26' E 000°44'0 0.0
2015-May-15 05:33N 51°26' E 000°44'0 0.0
2015-May-15 04:33N 51°26' E 000°44'0 0.0
2015-May-15 03:33N 51°26' E 000°44'0 0.0
2015-May-15 02:33N 51°26' E 000°44'0 0.0
2015-May-15 01:33N 51°26' E 000°44'0 0.0
2015-May-15 00:33N 51°26' E 000°44'0 0.0
2015-May-14 23:33N 51°26' E 000°44'0 0.0
2015-May-14 22:33N 51°26' E 000°44'0 0.0
2015-May-14 21:33N 51°26' E 000°44'0 0.0
2015-May-14 20:33N 51°26' E 000°44'0 0.0
2015-May-14 19:33N 51°26' E 000°44'0 0.2
2015-May-14 18:33N 51°26' E 000°44'1010.0
2015-May-14 17:33N 51°29' E 000°59'1414.0
2015-May-14 16:33N 51°28' E 001°22'6 6.3
2015-May-14 15:33N 51°26' E 001°31'7 7.5
2015-May-14 14:34N 51°30' E 001°41'1211.9
2015-May-14 13:33N 51°36' E 001°57'1010.1
2015-May-14 12:33N 51°46' E 002°04'3 1.4
2015-May-14 10:31N 51°43' E 002°06'2 1.8
2015-May-14 09:33N 51°41' E 002°07'1211.9
2015-May-14 08:33N 51°47' E 002°24'7814.7
2015-May-14 03:13N 52°48' E 003°44'914.1
2015-May-14 02:33N 52°55' E 003°55'1413.4
2015-May-14 01:29N 53°05' E 004°12'2512.4
2015-May-13 23:28N 53°26' E 004°35'1213.3
2015-May-13 22:33N 53°31' E 004°53'1514.6
2015-May-13 21:33N 53°36' E 005°16'1514.5
2015-May-13 20:33N 53°41' E 005°39'1414.0
2015-May-13 19:33N 53°44' E 006°02'1212.0
2015-May-13 18:33N 53°38' E 006°20'1111.5
2015-May-13 17:33N 53°35' E 006°38'1313.0
2015-May-13 16:34N 53°26' E 006°55'9 9.4
2015-May-13 15:33N 53°20' E 007°06'2 2.2
2015-May-13 14:32N 53°20' E 007°10'0 0.0
2015-May-13 13:32N 53°20' E 007°10'0 0.0
2015-May-13 12:32N 53°20' E 007°10'0 0.0
2015-May-13 11:32N 53°20' E 007°10'0 0.0
2015-May-13 10:32N 53°20' E 007°10'0 0.0
2015-May-13 09:32N 53°20' E 007°10'0 0.0
2015-May-13 08:29N 53°20' E 007°10'0 0.0
2015-May-13 07:32N 53°20' E 007°10'0 0.0
2015-May-13 06:32N 53°20' E 007°10'0 0.0
2015-May-13 05:32N 53°20' E 007°10'0 0.0
2015-May-13 04:29N 53°20' E 007°10'0 0.0
2015-May-13 03:32N 53°20' E 007°10'0 0.0
2015-May-13 02:32N 53°20' E 007°10'0 0.0
2015-May-13 01:32N 53°20' E 007°10'0 0.0
2015-May-13 00:32N 53°20' E 007°10'0 0.0
2015-May-12 23:32N 53°20' E 007°10'0 0.0
2015-May-12 22:29N 53°20' E 007°10'0 0.0
2015-May-12 21:32N 53°20' E 007°10'0 0.0
2015-May-12 20:32N 53°20' E 007°10'0 0.0
2015-May-12 19:32N 53°20' E 007°10'0 0.0
2015-May-12 18:29N 53°20' E 007°10'0 0.0
2015-May-12 17:32N 53°20' E 007°10'0 0.0
2015-May-12 16:32N 53°20' E 007°10'0 0.0
2015-May-12 15:32N 53°20' E 007°10'0 0.0
2015-May-12 14:32N 53°20' E 007°10'0 0.0
2015-May-12 13:32N 53°20' E 007°10'0 0.0
2015-May-12 12:29N 53°20' E 007°10'0 0.0
2015-May-12 11:32N 53°20' E 007°10'0 0.0
2015-May-12 10:32N 53°20' E 007°10'0 0.0
2015-May-12 09:32N 53°20' E 007°10'2 2.0
2015-May-12 08:33N 53°20' E 007°07'9 9.1
2015-May-12 07:33N 53°26' E 006°55'1212.1
2015-May-12 06:34N 53°34' E 006°40'1111.5
2015-May-12 05:33N 53°38' E 006°22'9 9.5
2015-May-12 04:33N 53°38' E 006°06'1414.3
2015-May-12 03:33N 53°36' E 005°42'1514.9
2015-May-12 02:33N 53°31' E 005°18'1615.5
2015-May-12 01:33N 53°26' E 004°54'1514.6
2015-May-12 00:33N 53°16' E 004°36'1615.6
2015-May-11 23:33N 53°02' E 004°23'1615.7
2015-May-11 22:33N 52°48' E 004°13'1616.0
2015-May-11 21:33N 52°36' E 003°55'1615.8
2015-May-11 20:33N 52°25' E 003°36'1616.0
2015-May-11 19:33N 52°15' E 003°16'1616.3
2015-May-11 18:33N 52°02' E 002°59'1717.4
2015-May-11 17:33N 51°49' E 002°41'1716.9
2015-May-11 16:33N 51°36' E 002°23'1616.1
2015-May-11 15:33N 51°22' E 002°10'  

Dump ship's entire track history